createdAt,value
2023-02-11T00:00:16.174Z,20.70
2023-02-11T00:02:45.507Z,21.23
2023-02-11T00:05:13.179Z,20.40
2023-02-11T00:07:39.606Z,21.77
2023-02-11T00:10:09.001Z,21.10
2023-02-11T00:12:37.530Z,19.77
2023-02-11T00:15:06.171Z,22.02
2023-02-11T00:17:32.927Z,20.48
2023-02-11T00:19:59.486Z,21.40
2023-02-11T00:22:25.989Z,20.35
2023-02-11T00:24:52.418Z,20.92
2023-02-11T00:27:18.857Z,19.60
2023-02-11T00:29:45.453Z,19.95
2023-02-11T00:32:11.899Z,20.83
2023-02-11T00:34:38.355Z,21.40
2023-02-11T00:37:05.610Z,20.35
2023-02-11T00:39:32.178Z,21.52
2023-02-11T00:41:58.644Z,21.85
2023-02-11T00:44:25.037Z,24.17
2023-02-11T00:46:51.459Z,23.73
2023-02-11T00:49:17.955Z,22.63
2023-02-11T00:51:44.470Z,22.98
2023-02-11T00:54:10.925Z,23.23
2023-02-11T00:56:38.808Z,24.30
2023-02-11T00:59:05.147Z,23.17
2023-02-11T01:01:31.657Z,24.33
2023-02-11T01:03:58.102Z,27.33
2023-02-11T01:06:24.816Z,24.38
2023-02-11T01:08:51.505Z,25.80
2023-02-11T01:11:20.341Z,26.27
2023-02-11T01:13:48.007Z,25.20
2023-02-11T01:16:16.196Z,24.00
2023-02-11T01:18:44.164Z,25.67
2023-02-11T01:21:11.112Z,25.52
2023-02-11T01:23:37.469Z,27.13
2023-02-11T01:26:04.883Z,26.73
2023-02-11T01:28:31.849Z,26.50
2023-02-11T01:31:00.970Z,25.25
2023-02-11T01:33:27.645Z,27.83
2023-02-11T01:35:54.223Z,27.52
2023-02-11T01:38:24.672Z,27.35
2023-02-11T01:41:00.699Z,31.60
2023-02-11T01:43:34.199Z,27.73
2023-02-11T01:46:26.605Z,27.75
2023-02-11T01:48:57.601Z,22.63
2023-02-11T01:51:30.160Z,30.90
2023-02-11T01:54:16.171Z,28.75
2023-02-11T01:57:07.979Z,29.83
2023-02-11T01:59:43.915Z,30.77
2023-02-11T02:02:13.419Z,30.75
2023-02-11T02:04:48.479Z,29.55
2023-02-11T02:07:28.308Z,31.23
2023-02-11T02:10:00.318Z,30.25
2023-02-11T02:12:26.806Z,32.33
2023-02-11T02:15:17.768Z,34.00
2023-02-11T02:18:14.868Z,31.70
2023-02-11T02:21:18.434Z,30.00
2023-02-11T02:26:59.286Z,30.63
2023-02-11T02:30:06.697Z,31.40
2023-02-11T02:32:36.904Z,32.20
2023-02-11T02:35:27.465Z,31.33
2023-02-11T02:38:08.461Z,31.10
2023-02-11T02:40:42.026Z,32.42
2023-02-11T02:43:10.656Z,29.67
2023-02-11T02:45:37.184Z,31.60
2023-02-11T02:48:03.900Z,30.73
2023-02-11T02:50:34.923Z,30.10
2023-02-11T02:53:31.977Z,31.15
2023-02-11T02:56:06.236Z,28.83
2023-02-11T02:58:52.944Z,33.35
2023-02-11T03:01:33.095Z,29.63
2023-02-11T03:04:05.623Z,33.33
2023-02-11T03:06:53.810Z,31.85
2023-02-11T03:09:32.423Z,30.65
2023-02-11T03:12:02.488Z,30.45
2023-02-11T03:14:30.554Z,30.60
2023-02-11T03:17:00.490Z,29.50
2023-02-11T03:19:32.203Z,29.88
2023-02-11T03:21:59.724Z,32.70
2023-02-11T03:24:32.830Z,30.85
2023-02-11T03:27:15.089Z,31.90
2023-02-11T03:29:51.537Z,23.53
2023-02-11T03:32:22.157Z,32.85
2023-02-11T03:35:14.805Z,30.52
2023-02-11T03:37:48.578Z,29.35
2023-02-11T03:40:21.920Z,29.90
2023-02-11T03:42:57.960Z,32.47
2023-02-11T03:45:27.302Z,32.67
2023-02-11T03:48:12.566Z,30.35
2023-02-11T03:50:41.042Z,30.80
2023-02-11T03:53:09.405Z,32.95
2023-02-11T03:55:39.711Z,31.88
2023-02-11T03:58:07.051Z,29.90
2023-02-11T04:00:37.073Z,30.27
2023-02-11T04:03:04.400Z,29.02
2023-02-11T04:05:30.992Z,31.08
2023-02-11T04:07:57.514Z,29.58
2023-02-11T04:10:24.247Z,30.90
2023-02-11T04:12:50.613Z,28.58
2023-02-11T04:15:17.425Z,30.17
2023-02-11T04:17:43.982Z,28.15
2023-02-11T04:20:12.059Z,28.65
2023-02-11T04:22:38.555Z,28.13
2023-02-11T04:25:06.204Z,29.52
2023-02-11T04:27:32.632Z,27.50
2023-02-11T04:29:59.179Z,27.02
2023-02-11T04:32:25.593Z,27.13
2023-02-11T04:34:52.100Z,24.77
2023-02-11T04:37:18.466Z,28.88
2023-02-11T04:39:44.821Z,28.83
2023-02-11T04:42:11.208Z,29.73
2023-02-11T04:44:37.716Z,25.30
2023-02-11T04:47:04.094Z,24.13
2023-02-11T04:49:30.899Z,27.05
2023-02-11T04:51:57.280Z,27.75
2023-02-11T04:54:23.658Z,26.95
2023-02-11T04:56:50.951Z,27.33
2023-02-11T04:59:17.383Z,28.90
2023-02-11T05:01:43.844Z,27.27
2023-02-11T05:04:10.354Z,26.02
2023-02-11T05:06:39.532Z,26.92
2023-02-11T05:09:05.973Z,26.90
2023-02-11T05:11:32.495Z,27.20
2023-02-11T05:13:58.975Z,24.85
2023-02-11T05:16:25.480Z,26.35
2023-02-11T05:18:52.683Z,24.73
2023-02-11T05:21:19.609Z,25.52
2023-02-11T05:23:46.175Z,26.50
2023-02-11T05:26:13.254Z,25.40
2023-02-11T05:28:40.496Z,25.83
2023-02-11T05:31:07.283Z,27.15
2023-02-11T05:33:34.252Z,25.98
2023-02-11T05:36:03.329Z,25.15
2023-02-11T05:38:29.736Z,25.13
2023-02-11T05:40:56.597Z,25.88
2023-02-11T05:43:23.193Z,23.25
2023-02-11T05:45:49.904Z,25.20
2023-02-11T05:48:16.851Z,24.13
2023-02-11T05:50:43.618Z,26.02
2023-02-11T05:53:10.048Z,25.60
2023-02-11T05:55:36.797Z,27.05
2023-02-11T05:58:03.954Z,24.17
2023-02-11T06:00:30.288Z,25.50
2023-02-11T06:02:56.733Z,24.70
2023-02-11T06:05:23.242Z,27.20
2023-02-11T06:07:49.677Z,25.50
2023-02-11T06:10:16.034Z,23.75
2023-02-11T06:12:42.532Z,25.05
2023-02-11T06:15:09.042Z,26.58
2023-02-11T06:17:36.501Z,23.83
2023-02-11T06:20:06.281Z,25.27
2023-02-11T06:22:33.663Z,23.05
2023-02-11T06:25:02.191Z,27.92
2023-02-11T06:27:29.701Z,24.25
2023-02-11T06:29:56.314Z,25.95
2023-02-11T06:32:42.633Z,24.48
2023-02-11T06:35:11.788Z,26.75
2023-02-11T06:37:38.936Z,22.85
2023-02-11T06:40:05.779Z,25.30
2023-02-11T06:42:32.301Z,24.88
2023-02-11T06:44:58.695Z,25.38
2023-02-11T06:47:25.306Z,25.67
2023-02-11T06:49:51.822Z,23.90
2023-02-11T06:52:18.200Z,25.42
2023-02-11T06:54:44.632Z,27.10
2023-02-11T06:57:11.059Z,24.15
2023-02-11T06:59:37.418Z,24.27
2023-02-11T07:02:03.882Z,25.80
2023-02-11T07:04:30.327Z,23.42
2023-02-11T07:06:56.676Z,23.67
2023-02-11T07:09:23.067Z,26.80
2023-02-11T07:11:49.428Z,31.52
2023-02-11T07:14:15.895Z,28.50
2023-02-11T07:16:42.480Z,24.98
2023-02-11T07:19:08.896Z,24.90
2023-02-11T07:21:35.489Z,25.90
2023-02-11T07:24:02.152Z,25.00
2023-02-11T07:26:31.373Z,26.60
2023-02-11T07:28:58.161Z,24.30
2023-02-11T07:31:27.416Z,24.92
2023-02-11T07:33:55.754Z,23.55
2023-02-11T07:36:23.164Z,25.42
2023-02-11T07:38:49.868Z,24.42
2023-02-11T07:41:19.085Z,23.48
2023-02-11T07:43:45.924Z,24.83
2023-02-11T07:46:15.757Z,25.70
2023-02-11T07:48:42.341Z,25.38
2023-02-11T07:51:16.224Z,23.40
2023-02-11T07:53:43.343Z,23.67
2023-02-11T07:56:11.782Z,26.83
2023-02-11T07:58:38.312Z,27.15
2023-02-11T08:01:08.372Z,27.88
2023-02-11T08:03:36.281Z,25.33
2023-02-11T08:06:07.468Z,24.85
2023-02-11T08:08:34.023Z,25.13
2023-02-11T08:11:07.387Z,24.95
2023-02-11T08:13:34.042Z,25.23
2023-02-11T08:16:00.457Z,24.85
2023-02-11T08:18:26.921Z,23.88
2023-02-11T08:20:53.496Z,24.52
2023-02-11T08:23:19.903Z,24.80
2023-02-11T08:25:46.272Z,25.38
2023-02-11T08:28:12.685Z,25.10
2023-02-11T08:30:39.138Z,23.13
2023-02-11T08:33:05.562Z,24.27
2023-02-11T08:35:32.958Z,24.83
2023-02-11T08:37:59.394Z,23.48
2023-02-11T08:40:25.745Z,23.25
2023-02-11T08:42:52.145Z,22.83
2023-02-11T08:45:18.548Z,23.33
2023-02-11T08:47:44.919Z,23.42
2023-02-11T08:50:11.558Z,23.48
2023-02-11T08:52:37.971Z,22.83
2023-02-11T08:55:04.697Z,24.75
2023-02-11T08:57:31.127Z,24.05
2023-02-11T08:59:58.316Z,25.48
2023-02-11T09:02:24.791Z,26.02
2023-02-11T09:04:51.208Z,24.42
2023-02-11T09:07:17.728Z,26.55
2023-02-11T09:09:44.079Z,24.27
2023-02-11T09:12:10.560Z,23.55
2023-02-11T09:14:38.239Z,24.17
2023-02-11T09:17:04.727Z,25.17
2023-02-11T09:19:31.166Z,23.92
2023-02-11T09:21:57.531Z,26.00
2023-02-11T09:24:23.886Z,24.05
2023-02-11T09:26:50.360Z,25.13
2023-02-11T09:29:16.802Z,23.83
2023-02-11T09:31:43.559Z,25.55
2023-02-11T09:34:10.996Z,26.95
2023-02-11T09:36:40.135Z,26.70
2023-02-11T09:39:09.930Z,26.70
2023-02-11T09:42:01.556Z,26.50
2023-02-11T09:44:34.177Z,24.90
2023-02-11T09:47:04.774Z,27.65
2023-02-11T09:49:39.712Z,26.67
2023-02-11T09:52:18.287Z,24.33
2023-02-11T09:54:55.337Z,25.63
2023-02-11T09:57:28.695Z,24.90
2023-02-11T09:59:57.147Z,26.73
2023-02-11T10:02:37.901Z,25.35
2023-02-11T10:05:32.380Z,25.52
2023-02-11T10:08:18.856Z,24.10
2023-02-11T10:10:45.179Z,24.60
2023-02-11T10:13:42.571Z,25.20
2023-02-11T10:16:17.877Z,23.27
2023-02-11T10:18:44.298Z,25.20
2023-02-11T10:21:28.348Z,23.50
2023-02-11T10:24:00.732Z,28.08
2023-02-11T10:26:30.826Z,24.63
2023-02-11T10:29:04.682Z,24.30
2023-02-11T10:31:39.891Z,25.63
2023-02-11T10:34:10.549Z,24.52
2023-02-11T10:36:40.554Z,25.83
2023-02-11T10:39:20.575Z,26.95
2023-02-11T10:42:12.128Z,24.55
2023-02-11T10:45:03.764Z,24.20
2023-02-11T10:47:37.441Z,24.40
2023-02-11T10:50:24.059Z,25.15
2023-02-11T10:52:50.467Z,24.42
2023-02-11T10:55:24.352Z,23.60
2023-02-11T10:58:00.265Z,24.27
2023-02-11T11:00:52.888Z,23.40
2023-02-11T11:03:22.878Z,23.25
2023-02-11T11:06:11.513Z,23.85
2023-02-11T11:08:44.069Z,24.83
2023-02-11T11:11:13.284Z,23.73
2023-02-11T11:13:57.980Z,24.38
2023-02-11T11:16:27.583Z,34.47
2023-02-11T11:19:21.685Z,23.88
2023-02-11T11:21:53.644Z,23.50
2023-02-11T11:24:29.256Z,23.80
2023-02-11T11:26:59.558Z,23.83
2023-02-11T11:29:38.200Z,25.00
2023-02-11T11:32:27.011Z,23.88
2023-02-11T11:34:56.528Z,23.27
2023-02-11T11:37:27.037Z,24.35
2023-02-11T11:40:07.615Z,22.77
2023-02-11T11:42:38.850Z,23.65
2023-02-11T11:45:19.506Z,21.60
2023-02-11T11:48:17.120Z,23.25
2023-02-11T11:50:53.549Z,24.13
2023-02-11T11:53:25.834Z,20.73
2023-02-11T11:56:05.125Z,21.20
2023-02-11T11:58:32.285Z,21.58
2023-02-11T12:01:34.385Z,21.10
2023-02-11T12:04:38.443Z,20.20
2023-02-11T12:07:13.980Z,21.25
2023-02-11T12:09:53.268Z,22.05
2023-02-11T12:12:38.351Z,19.30
2023-02-11T12:15:22.321Z,19.48
2023-02-11T12:18:09.067Z,17.55
2023-02-11T12:21:09.970Z,20.30
2023-02-11T12:23:51.739Z,18.67
2023-02-11T12:26:21.116Z,17.55
2023-02-11T12:29:07.163Z,19.73
2023-02-11T12:32:18.764Z,17.55
2023-02-11T12:35:07.729Z,18.98
2023-02-11T12:38:09.985Z,19.63
2023-02-11T12:40:42.443Z,17.98
2023-02-11T12:43:17.919Z,14.27
2023-02-11T12:46:00.585Z,18.15
2023-02-11T12:48:49.817Z,18.63
2023-02-11T12:51:48.839Z,18.10
2023-02-11T12:54:28.510Z,17.73
2023-02-11T12:57:18.190Z,18.27
2023-02-11T12:59:51.177Z,16.33
2023-02-11T13:02:34.646Z,17.45
2023-02-11T13:05:28.375Z,16.02
2023-02-11T13:08:39.850Z,17.65
2023-02-11T13:11:17.420Z,16.98
2023-02-11T13:13:56.012Z,15.45
2023-02-11T13:16:42.437Z,15.95
2023-02-11T13:19:24.187Z,14.23
2023-02-11T13:21:59.752Z,17.83
2023-02-11T13:24:36.964Z,16.88
2023-02-11T13:27:20.181Z,14.93
2023-02-11T13:30:24.422Z,15.73
2023-02-11T13:32:53.802Z,14.95
2023-02-11T13:35:35.020Z,15.88
2023-02-11T13:38:16.465Z,15.73
2023-02-11T13:40:43.406Z,14.82
2023-02-11T13:43:25.040Z,15.60
2023-02-11T13:46:05.851Z,14.80
2023-02-11T13:48:37.927Z,14.30
2023-02-11T13:51:11.578Z,13.80
2023-02-11T13:53:47.409Z,14.82
2023-02-11T13:56:29.251Z,15.98
2023-02-11T13:58:56.485Z,14.18
2023-02-11T14:02:06.972Z,13.55
2023-02-11T14:04:52.794Z,13.45
2023-02-11T14:07:51.941Z,11.95
2023-02-11T14:10:43.190Z,12.45
2023-02-11T14:13:32.656Z,10.98
2023-02-11T14:16:13.574Z,11.45
2023-02-11T14:18:49.667Z,10.40
2023-02-11T14:21:27.212Z,11.43
2023-02-11T14:24:14.927Z,10.48
2023-02-11T14:26:51.534Z,12.30
2023-02-11T14:29:26.149Z,11.25
2023-02-11T14:32:05.355Z,12.88
2023-02-11T14:35:00.177Z,14.20
2023-02-11T14:37:50.844Z,14.35
2023-02-11T14:40:56.065Z,14.52
2023-02-11T14:43:31.326Z,13.07
2023-02-11T14:45:59.028Z,13.60
2023-02-11T14:48:37.851Z,13.82
2023-02-11T14:51:12.493Z,14.20
2023-02-11T14:53:45.056Z,15.05
2023-02-11T14:56:22.188Z,14.15
2023-02-11T14:58:51.541Z,13.88
2023-02-11T15:01:35.318Z,12.32
2023-02-11T15:04:05.106Z,13.35
2023-02-11T15:06:38.864Z,12.48
2023-02-11T15:09:16.094Z,12.48
2023-02-11T15:11:45.191Z,12.15
2023-02-11T15:14:25.639Z,12.77
2023-02-11T15:16:54.656Z,13.05
2023-02-11T15:19:31.208Z,12.82
2023-02-11T15:21:59.457Z,12.27
2023-02-11T15:24:30.727Z,12.82
2023-02-11T15:26:57.928Z,11.55
2023-02-11T15:29:26.607Z,12.60
2023-02-11T15:32:07.225Z,12.10
2023-02-11T15:34:33.930Z,11.93
2023-02-11T15:37:00.661Z,13.88
2023-02-11T15:39:40.281Z,13.15
2023-02-11T15:42:25.836Z,12.60
2023-02-11T15:45:29.053Z,11.73
2023-02-11T15:48:15.927Z,12.57
2023-02-11T15:50:48.745Z,13.88
2023-02-11T15:53:38.067Z,13.27
2023-02-11T15:56:42.045Z,11.32
2023-02-11T15:59:18.936Z,12.02
2023-02-11T16:01:47.649Z,10.68
2023-02-11T16:04:20.106Z,10.10
2023-02-11T16:06:50.555Z,10.13
2023-02-11T16:09:16.885Z,11.35
2023-02-11T16:11:46.288Z,12.40
2023-02-11T16:14:27.857Z,11.55
2023-02-11T16:16:56.133Z,10.98
2023-02-11T16:19:25.894Z,10.10
2023-02-11T16:21:54.393Z,12.05
2023-02-11T16:24:24.531Z,11.95
2023-02-11T16:26:54.603Z,12.88
2023-02-11T16:29:29.095Z,12.30
2023-02-11T16:32:07.902Z,11.95
2023-02-11T16:34:34.994Z,14.68
2023-02-11T16:37:04.576Z,14.48
2023-02-11T16:39:31.017Z,14.85
2023-02-11T16:41:58.241Z,15.75
2023-02-11T16:44:25.034Z,15.48
2023-02-11T16:46:52.599Z,18.30
2023-02-11T16:49:27.773Z,19.85
2023-02-11T16:51:56.832Z,18.83
2023-02-11T16:54:23.686Z,18.75
2023-02-11T16:56:50.198Z,18.55
2023-02-11T16:59:16.602Z,19.48
2023-02-11T17:01:44.165Z,19.20
2023-02-11T17:04:20.714Z,19.65
2023-02-11T17:06:48.076Z,18.50
2023-02-11T17:09:22.789Z,18.27
2023-02-11T17:11:49.639Z,19.50
2023-02-11T17:14:16.377Z,18.23
2023-02-11T17:16:43.872Z,20.17
2023-02-11T17:19:12.945Z,20.58
2023-02-11T17:21:44.031Z,17.95
2023-02-11T17:24:10.988Z,18.63
2023-02-11T17:26:38.639Z,19.95
2023-02-11T17:29:06.942Z,18.35
2023-02-11T17:31:33.764Z,18.13
2023-02-11T17:34:00.441Z,17.15
2023-02-11T17:36:27.184Z,17.38
2023-02-11T17:38:55.031Z,18.63
2023-02-11T17:41:22.420Z,17.73
2023-02-11T17:43:48.832Z,16.85
2023-02-11T17:46:15.406Z,16.42
2023-02-11T17:48:41.859Z,17.00
2023-02-11T17:51:22.950Z,17.52
2023-02-11T17:53:49.776Z,19.13
2023-02-11T17:56:16.356Z,17.52
2023-02-11T17:58:42.883Z,16.23
2023-02-11T18:01:09.967Z,18.65
2023-02-11T18:03:36.611Z,15.93
2023-02-11T18:06:05.397Z,17.42
2023-02-11T18:08:33.128Z,18.55
2023-02-11T18:11:00.125Z,16.20
2023-02-11T18:13:28.264Z,17.95
2023-02-11T18:15:57.088Z,16.73
2023-02-11T18:18:23.452Z,15.57
2023-02-11T18:21:00.399Z,16.58
2023-02-11T18:23:27.655Z,19.25
2023-02-11T18:25:54.306Z,17.88
2023-02-11T18:28:20.998Z,16.52
2023-02-11T18:30:47.498Z,17.40
2023-02-11T18:33:14.386Z,17.52
2023-02-11T18:35:42.750Z,15.57
2023-02-11T18:38:09.670Z,16.13
2023-02-11T18:40:39.735Z,16.45
2023-02-11T18:43:07.275Z,16.67
2023-02-11T18:45:34.152Z,18.88
2023-02-11T18:48:03.757Z,16.50
2023-02-11T18:50:30.228Z,18.75
2023-02-11T18:52:56.664Z,18.02
2023-02-11T18:55:25.624Z,18.10
2023-02-11T18:57:52.999Z,17.58
2023-02-11T19:00:20.735Z,16.95
2023-02-11T19:02:47.215Z,20.17
2023-02-11T19:05:13.730Z,20.52
2023-02-11T19:07:40.274Z,18.85
2023-02-11T19:10:07.663Z,20.58
2023-02-11T19:12:34.167Z,18.30
2023-02-11T19:15:00.776Z,18.95
2023-02-11T19:17:27.727Z,19.85
2023-02-11T19:19:54.156Z,19.83
2023-02-11T19:22:20.609Z,21.75
2023-02-11T19:24:47.105Z,21.30
2023-02-11T19:27:13.480Z,21.30
2023-02-11T19:29:40.034Z,21.33
2023-02-11T19:32:06.935Z,19.63
2023-02-11T19:34:40.951Z,19.08
2023-02-11T19:37:08.551Z,18.42
2023-02-11T19:39:34.912Z,17.48
2023-02-11T19:42:01.430Z,16.50
2023-02-11T19:44:28.186Z,15.95
2023-02-11T19:46:54.711Z,15.80
2023-02-11T19:49:25.756Z,16.23
2023-02-11T19:51:54.083Z,17.50
2023-02-11T19:54:21.855Z,16.67
2023-02-11T19:56:48.692Z,18.63
2023-02-11T19:59:15.733Z,19.20
2023-02-11T20:01:42.317Z,18.52
2023-02-11T20:04:08.860Z,18.10
2023-02-11T20:06:35.338Z,19.48
2023-02-11T20:09:09.862Z,20.75
2023-02-11T20:11:38.658Z,17.83
2023-02-11T20:14:06.669Z,19.92
2023-02-11T20:16:47.633Z,18.70
2023-02-11T20:19:22.055Z,19.90
2023-02-11T20:21:55.380Z,19.80
2023-02-11T20:24:23.390Z,20.20
2023-02-11T20:26:51.549Z,19.23
2023-02-11T20:29:18.746Z,19.55
2023-02-11T20:31:45.664Z,20.45
2023-02-11T20:34:12.564Z,18.42
2023-02-11T20:36:40.360Z,18.73
2023-02-11T20:39:07.545Z,18.25
2023-02-11T20:41:36.014Z,18.13
2023-02-11T20:44:05.752Z,18.63
2023-02-11T20:46:33.568Z,18.55
2023-02-11T20:49:01.263Z,16.67
2023-02-11T20:51:30.767Z,18.60
2023-02-11T20:53:57.634Z,19.25
2023-02-11T20:56:26.621Z,16.85
2023-02-11T20:58:53.284Z,16.20
2023-02-11T21:01:21.959Z,17.27
2023-02-11T21:04:11.133Z,16.50
2023-02-11T21:06:40.792Z,18.25
2023-02-11T21:09:09.187Z,16.30
2023-02-11T21:11:35.634Z,17.80
2023-02-11T21:14:02.406Z,16.35
2023-02-11T21:16:29.081Z,16.30
2023-02-11T21:18:56.801Z,17.50
2023-02-11T21:21:24.158Z,16.33
2023-02-11T21:23:50.540Z,17.13
2023-02-11T21:26:17.198Z,19.55
2023-02-11T21:28:43.851Z,18.67
2023-02-11T21:31:19.159Z,18.02
2023-02-11T21:33:45.905Z,18.40
2023-02-11T21:36:12.274Z,18.10
2023-02-11T21:38:38.769Z,19.67
2023-02-11T21:41:05.944Z,17.15
2023-02-11T21:43:32.888Z,16.77
2023-02-11T21:45:59.835Z,17.67
2023-02-11T21:48:26.679Z,16.25
2023-02-11T21:50:53.661Z,16.75
2023-02-11T21:53:20.146Z,17.90
2023-02-11T21:55:46.650Z,16.25
2023-02-11T21:58:13.399Z,16.88
2023-02-11T22:00:40.073Z,18.20
2023-02-11T22:03:06.516Z,18.33
2023-02-11T22:05:32.880Z,17.30
2023-02-11T22:07:59.295Z,17.67
2023-02-11T22:10:25.727Z,18.92
2023-02-11T22:12:52.230Z,16.25
2023-02-11T22:15:18.707Z,18.30
2023-02-11T22:17:45.086Z,18.10
2023-02-11T22:20:11.884Z,15.73
2023-02-11T22:22:38.284Z,14.88
2023-02-11T22:25:04.862Z,15.70
2023-02-11T22:27:31.373Z,15.55
2023-02-11T22:29:57.736Z,15.98
2023-02-11T22:32:24.170Z,14.18
2023-02-11T22:34:53.227Z,16.58
2023-02-11T22:37:19.927Z,14.60
2023-02-11T22:39:46.483Z,14.07
2023-02-11T22:42:13.001Z,14.57
2023-02-11T22:44:39.416Z,14.40
2023-02-11T22:47:05.880Z,14.50
2023-02-11T22:49:35.521Z,17.27
2023-02-11T22:52:02.023Z,14.98
2023-02-11T22:54:28.430Z,13.68
2023-02-11T22:56:54.907Z,14.07
2023-02-11T22:59:21.276Z,14.88
2023-02-11T23:01:48.175Z,13.70
2023-02-11T23:04:15.949Z,15.48
2023-02-11T23:06:42.803Z,14.60
2023-02-11T23:09:12.064Z,13.90
2023-02-11T23:11:39.178Z,14.68
2023-02-11T23:14:07.909Z,13.45
2023-02-11T23:16:34.791Z,15.93
2023-02-11T23:19:04.113Z,16.50
2023-02-11T23:21:33.305Z,15.98
2023-02-11T23:24:06.224Z,16.00
2023-02-11T23:26:32.684Z,19.08
2023-02-11T23:28:59.753Z,16.75
2023-02-11T23:31:30.189Z,17.55
2023-02-11T23:33:56.968Z,19.42
2023-02-11T23:36:23.647Z,18.45
2023-02-11T23:38:50.534Z,17.13
2023-02-11T23:41:17.927Z,18.10
2023-02-11T23:43:48.076Z,17.00
2023-02-11T23:46:14.515Z,17.33
2023-02-11T23:48:40.902Z,16.67
2023-02-11T23:51:09.649Z,17.73
2023-02-11T23:53:38.032Z,17.45
2023-02-11T23:56:10.228Z,16.15
2023-02-11T23:58:37.194Z,15.60
